CheckWX is a tool to help pilots better visualize weather data.  It is not intended as a substitute for an official pre-flight weather briefing.

19:03:31 UTC

SBSN TAF
Maestro Wilson Fonseca Airport
Santarém, Brazil
TAF SBSN 191500Z 1918/2018 07008KT 9999 SCT020 FEW025TCU TX30/1919Z TN24/2010Z BECMG 1922/1924 FEW020 TEMPO 2005/2010 TS FEW020 FEW025CB RMK PHQ

Jun-19@
18:00 UTC

Jun-19 @ 18:00 UTC

Jun-19@
22:00 UTC

Jun-19 @ 22:00 UTC

TAF SBSN 191500Z 1918/2018 07008KT 9999 SCT020 FEW025TCU TX30/1919Z TN24/2010Z
Wind
  • 070° at 8 KTS
Cloud Levels
  • Scattered at 2,000' AGL
  • Few at 2,500' AGL

Jun-19@
22:00 UTC

Jun-19 @ 22:00 UTC

Jun-20@
18:00 UTC

Jun-20 @ 18:00 UTC

BECMG 1922/1924 FEW020

Becoming

Becoming Conditions expected by Thu, Jun 20, 2019 @ 00:00 UTC

Wind
  • 070° at 8 KTS
Cloud Levels
  • Few at 2,000' AGL

Jun-20@
05:00 UTC

Jun-20 @ 05:00 UTC

Jun-20@
10:00 UTC

Jun-20 @ 10:00 UTC

TEMPO 2005/2010 TS FEW020 FEW025CB RMK PHQ

Temporary

Temporary Changes expected for less than half the time period

Conditions
Thunderstorm
Cloud Levels
  • Few at 2,000' AGL
  • Few at 2,500' AGL